createdAt,value
2019-04-04T00:00:05.481Z,37.63
2019-04-04T00:02:33.924Z,43.10
2019-04-04T00:05:02.387Z,40.60
2019-04-04T00:07:30.910Z,37.90
2019-04-04T00:09:59.399Z,36.85
2019-04-04T00:12:27.842Z,42.35
2019-04-04T00:14:56.317Z,41.42
2019-04-04T00:17:24.759Z,39.27
2019-04-04T00:19:53.246Z,39.67
2019-04-04T00:22:21.716Z,38.85
2019-04-04T00:24:50.169Z,38.08
2019-04-04T00:27:18.575Z,37.17
2019-04-04T00:29:48.066Z,34.70
2019-04-04T00:32:17.084Z,36.83
2019-04-04T00:34:45.613Z,38.67
2019-04-04T00:37:14.094Z,40.12
2019-04-04T00:39:42.555Z,37.03
2019-04-04T00:42:10.989Z,36.83
2019-04-04T00:44:39.487Z,41.20
2019-04-04T00:47:08.082Z,34.10
2019-04-04T00:49:36.569Z,35.03
2019-04-04T00:52:05.091Z,37.15
2019-04-04T00:54:33.644Z,38.10
2019-04-04T00:57:02.071Z,36.58
2019-04-04T00:59:30.521Z,35.15
2019-04-04T01:01:58.971Z,34.45
2019-04-04T01:04:30.802Z,38.88
2019-04-04T01:06:57.654Z,41.45
2019-04-04T01:09:26.183Z,40.55
2019-04-04T01:11:54.634Z,40.20
2019-04-04T01:14:25.090Z,39.55
2019-04-04T01:16:53.547Z,43.30
2019-04-04T01:19:22.464Z,38.75
2019-04-04T01:21:53.094Z,40.43
2019-04-04T01:24:21.093Z,40.28
2019-04-04T01:26:49.555Z,40.05
2019-04-04T01:29:18.119Z,39.78
2019-04-04T01:31:46.643Z,42.83
2019-04-04T01:34:15.125Z,40.85
2019-04-04T01:36:43.574Z,39.50
2019-04-04T01:39:12.084Z,39.60
2019-04-04T01:41:41.595Z,41.20
2019-04-04T01:44:11.384Z,42.58
2019-04-04T01:46:40.291Z,45.20
2019-04-04T01:49:08.778Z,41.65
2019-04-04T01:51:37.286Z,43.83
2019-04-04T01:54:05.715Z,42.67
2019-04-04T01:56:36.752Z,41.83
2019-04-04T01:59:04.678Z,41.40
2019-04-04T02:01:33.139Z,43.58
2019-04-04T02:04:01.599Z,40.05
2019-04-04T02:06:30.043Z,40.50
2019-04-04T02:08:58.466Z,44.65
2019-04-04T02:11:26.950Z,49.15
2019-04-04T02:13:55.459Z,49.75
2019-04-04T02:16:23.991Z,51.68
2019-04-04T02:18:53.851Z,49.67
2019-04-04T02:21:22.702Z,47.80
2019-04-04T02:23:51.230Z,47.58
2019-04-04T02:26:19.694Z,47.75
2019-04-04T02:29:10.701Z,49.42
2019-04-04T02:31:39.579Z,50.40
2019-04-04T02:34:08.078Z,49.38
2019-04-04T02:36:36.516Z,48.33
2019-04-04T02:39:37.887Z,46.48
2019-04-04T02:42:06.464Z,51.23
2019-04-04T02:44:34.909Z,53.30
2019-04-04T02:47:03.396Z,50.30
2019-04-04T02:49:32.001Z,55.28
2019-04-04T02:52:00.799Z,51.75
2019-04-04T02:54:29.339Z,51.50
2019-04-04T02:56:57.790Z,48.02
2019-04-04T02:59:26.268Z,47.73
2019-04-04T03:01:55.019Z,47.83
2019-04-04T03:04:26.125Z,51.95
2019-04-04T03:06:57.148Z,46.60
2019-04-04T03:09:24.809Z,47.10
2019-04-04T03:11:53.917Z,69.40
2019-04-04T03:14:23.266Z,46.20
2019-04-04T03:16:56.392Z,50.10
2019-04-04T03:19:22.609Z,46.95
2019-04-04T03:21:54.875Z,51.63
2019-04-04T03:24:21.190Z,49.42
2019-04-04T03:26:52.184Z,49.27
2019-04-04T03:29:19.903Z,51.23
2019-04-04T03:31:48.386Z,51.63
2019-04-04T03:34:16.895Z,48.78
2019-04-04T03:36:45.435Z,47.73
2019-04-04T03:39:13.914Z,45.60
2019-04-04T03:41:42.359Z,45.08
2019-04-04T03:44:10.794Z,48.75
2019-04-04T03:46:39.335Z,44.70
2019-04-04T03:49:07.777Z,48.48
2019-04-04T03:51:38.040Z,47.93
2019-04-04T03:54:08.033Z,51.80
2019-04-04T03:56:39.608Z,51.85
2019-04-04T03:59:08.114Z,51.42
2019-04-04T04:01:36.561Z,54.40
2019-04-04T04:04:05.000Z,52.95
2019-04-04T04:06:33.510Z,56.13
2019-04-04T04:09:02.077Z,56.68
2019-04-04T04:11:30.525Z,56.65
2019-04-04T04:13:59.048Z,58.92
2019-04-04T04:16:27.506Z,60.00
2019-04-04T04:18:56.070Z,58.33
2019-04-04T04:21:24.536Z,59.30
2019-04-04T04:23:56.344Z,57.90
2019-04-04T04:26:23.187Z,58.55
2019-04-04T04:28:53.332Z,57.80
2019-04-04T04:31:21.810Z,57.17
2019-04-04T04:33:50.222Z,60.20
2019-04-04T04:36:18.682Z,57.83
2019-04-04T04:38:47.105Z,58.10
2019-04-04T04:41:19.776Z,62.15
2019-04-04T04:43:45.708Z,58.10
2019-04-04T04:46:16.726Z,55.75
2019-04-04T04:48:44.367Z,54.25
2019-04-04T04:51:12.836Z,60.05
2019-04-04T04:53:41.457Z,60.73
2019-04-04T04:56:09.978Z,68.60
2019-04-04T04:58:41.746Z,54.90
2019-04-04T05:01:08.722Z,58.63
2019-04-04T05:03:37.231Z,57.40
2019-04-04T05:06:05.824Z,59.53
2019-04-04T05:08:34.321Z,57.88
2019-04-04T05:11:02.777Z,56.95
2019-04-04T05:13:31.226Z,60.40
2019-04-04T05:15:59.964Z,59.55
2019-04-04T05:18:28.481Z,54.18
2019-04-04T05:20:57.518Z,60.58
2019-04-04T05:23:26.084Z,58.78
2019-04-04T05:25:54.590Z,54.73
2019-04-04T05:28:27.383Z,54.00
2019-04-04T05:30:55.941Z,52.53
2019-04-04T05:33:26.879Z,56.90
2019-04-04T05:35:54.754Z,54.25
2019-04-04T05:38:23.339Z,57.05
2019-04-04T05:40:53.277Z,54.27
2019-04-04T05:43:22.061Z,58.23
2019-04-04T05:45:50.517Z,60.38
2019-04-04T05:48:18.999Z,64.40
2019-04-04T05:50:47.521Z,61.73
2019-04-04T05:53:15.998Z,59.35
2019-04-04T05:55:44.821Z,56.25
2019-04-04T05:58:13.331Z,54.35
2019-04-04T06:00:43.499Z,55.12
2019-04-04T06:03:13.048Z,59.33
2019-04-04T06:05:42.182Z,63.00
2019-04-04T06:08:10.682Z,62.58
2019-04-04T06:10:39.174Z,67.62
2019-04-04T06:13:07.716Z,64.22
2019-04-04T06:15:36.208Z,58.90
2019-04-04T06:18:23.979Z,59.42
2019-04-04T06:20:52.417Z,56.65
2019-04-04T06:23:20.867Z,58.30
2019-04-04T06:25:49.388Z,59.40
2019-04-04T06:28:20.530Z,58.68
2019-04-04T06:30:48.968Z,60.00
2019-04-04T06:33:17.531Z,60.00
2019-04-04T06:35:47.902Z,68.12
2019-04-04T06:38:16.157Z,64.35
2019-04-04T06:40:44.647Z,61.08
2019-04-04T06:43:17.734Z,70.75
2019-04-04T06:45:46.657Z,64.20
2019-04-04T06:48:15.899Z,64.07
2019-04-04T06:50:44.442Z,66.92
2019-04-04T06:53:13.206Z,62.55
2019-04-04T06:55:41.687Z,66.15
2019-04-04T06:58:10.140Z,66.17
2019-04-04T07:00:38.569Z,64.00
2019-04-04T07:03:07.074Z,66.05
2019-04-04T07:05:37.898Z,64.10
2019-04-04T07:08:05.766Z,65.65
2019-04-04T07:10:34.200Z,67.65
2019-04-04T07:13:14.851Z,67.22
2019-04-04T07:15:32.947Z,69.10
2019-04-04T07:18:01.435Z,74.85
2019-04-04T07:20:29.938Z,76.45
2019-04-04T07:22:58.407Z,78.17
2019-04-04T07:25:46.177Z,82.82
2019-04-04T07:28:14.657Z,89.70
2019-04-04T07:30:43.097Z,88.47
2019-04-04T07:33:12.703Z,85.47
2019-04-04T07:35:41.352Z,94.90
2019-04-04T07:38:09.842Z,86.92
2019-04-04T07:40:38.290Z,88.78
2019-04-04T07:43:08.634Z,92.08
2019-04-04T07:45:36.967Z,95.12
2019-04-04T07:48:05.388Z,97.33
2019-04-04T07:50:33.810Z,92.15
2019-04-04T07:53:04.986Z,90.83
2019-04-04T07:55:32.822Z,90.90
2019-04-04T07:58:01.257Z,93.12
2019-04-04T08:00:29.705Z,91.30
2019-04-04T08:02:58.126Z,92.97
2019-04-04T08:05:26.562Z,96.12
2019-04-04T08:07:55.002Z,99.47
2019-04-04T08:10:23.555Z,94.62
2019-04-04T08:12:52.035Z,98.60
2019-04-04T08:15:20.671Z,94.07
2019-04-04T08:17:49.146Z,100.12
2019-04-04T08:20:17.726Z,93.62
2019-04-04T08:22:46.175Z,91.65
2019-04-04T08:25:14.946Z,96.28
2019-04-04T08:27:43.414Z,104.27
2019-04-04T08:30:31.170Z,98.10
2019-04-04T08:32:59.621Z,99.60
2019-04-04T08:35:28.070Z,92.33
2019-04-04T08:37:56.535Z,92.50
2019-04-04T08:40:25.095Z,94.87
2019-04-04T08:42:53.579Z,98.87
2019-04-04T08:45:22.116Z,95.00
2019-04-04T08:47:50.643Z,91.08
2019-04-04T08:50:19.076Z,93.35
2019-04-04T08:52:47.520Z,92.88
2019-04-04T08:55:15.986Z,90.35
2019-04-04T08:57:44.461Z,97.37
2019-04-04T09:00:13.270Z,90.87
2019-04-04T09:02:41.700Z,96.30
2019-04-04T09:05:12.142Z,67.55
2019-04-04T09:07:40.532Z,63.05
2019-04-04T09:10:10.095Z,43.55
2019-04-04T09:12:38.566Z,49.45
2019-04-04T09:15:08.180Z,45.43
2019-04-04T09:17:36.625Z,36.28
2019-04-04T09:20:09.733Z,36.23
2019-04-04T09:22:40.821Z,27.45
2019-04-04T09:25:16.141Z,25.25
2019-04-04T09:27:46.185Z,24.98
2019-04-04T09:30:17.816Z,25.55
2019-04-04T09:32:46.262Z,21.75
2019-04-04T09:35:14.867Z,16.75
2019-04-04T09:37:43.426Z,18.27
2019-04-04T09:40:12.197Z,18.62
2019-04-04T09:42:40.875Z,19.17
2019-04-04T09:45:10.160Z,15.03
2019-04-04T09:47:38.763Z,17.20
2019-04-04T09:50:08.304Z,15.55
2019-04-04T09:52:36.761Z,13.10
2019-04-04T09:55:07.533Z,12.58
2019-04-04T09:57:35.990Z,11.38
2019-04-04T10:00:16.135Z,13.13
2019-04-04T10:02:44.721Z,14.30
2019-04-04T10:05:14.479Z,13.38
2019-04-04T10:07:42.948Z,11.57
2019-04-04T10:10:11.996Z,12.40
2019-04-04T10:12:40.406Z,11.38
2019-04-04T10:15:09.540Z,12.65
2019-04-04T10:17:37.959Z,14.85
2019-04-04T10:20:09.857Z,11.22
2019-04-04T10:22:38.488Z,12.53
2019-04-04T10:25:08.058Z,10.78
2019-04-04T10:27:36.592Z,13.72
2019-04-04T10:30:08.906Z,13.08
2019-04-04T10:32:37.497Z,10.20
2019-04-04T10:35:07.341Z,9.35
2019-04-04T10:37:35.783Z,9.55
2019-04-04T10:40:06.514Z,8.68
2019-04-04T10:42:40.879Z,10.58
2019-04-04T10:45:09.766Z,9.63
2019-04-04T10:47:38.511Z,10.35
2019-04-04T10:50:07.712Z,7.53
2019-04-04T10:52:36.304Z,11.40
2019-04-04T10:55:06.369Z,8.40
2019-04-04T10:57:35.039Z,5.75
2019-04-04T11:00:06.095Z,9.35
2019-04-04T11:02:34.630Z,6.53
2019-04-04T11:05:03.155Z,7.42
2019-04-04T11:07:31.630Z,7.95
2019-04-04T11:10:00.149Z,5.78
2019-04-04T11:12:28.662Z,8.05
2019-04-04T11:14:57.095Z,8.13
2019-04-04T11:17:25.646Z,6.05
2019-04-04T11:19:54.174Z,6.62
2019-04-04T11:22:22.658Z,6.72
2019-04-04T11:24:51.104Z,6.47
2019-04-04T11:27:19.514Z,8.70
2019-04-04T11:29:47.969Z,7.00
2019-04-04T11:32:16.473Z,6.67
2019-04-04T11:34:52.959Z,5.55
2019-04-04T11:37:15.139Z,6.83
2019-04-04T11:39:54.039Z,7.22
2019-04-04T11:42:13.970Z,7.30
2019-04-04T11:44:42.531Z,10.05
2019-04-04T11:47:11.127Z,8.23
2019-04-04T11:49:39.598Z,5.30
2019-04-04T11:52:08.095Z,6.70
2019-04-04T11:54:38.234Z,5.75
2019-04-04T11:57:06.924Z,5.40
2019-04-04T11:59:35.455Z,5.25
2019-04-04T12:02:05.011Z,5.70
2019-04-04T12:04:33.581Z,6.28
2019-04-04T12:07:02.254Z,4.42
2019-04-04T12:09:30.846Z,4.10
2019-04-04T12:11:59.330Z,3.95
2019-04-04T12:14:27.784Z,3.80
2019-04-04T12:16:56.254Z,3.92
2019-04-04T12:19:24.785Z,3.52
2019-04-04T12:21:53.281Z,4.37
2019-04-04T12:24:21.838Z,4.87
2019-04-04T12:26:50.251Z,4.40
2019-04-04T12:29:18.755Z,4.87
2019-04-04T12:31:47.273Z,4.90
2019-04-04T12:34:15.734Z,6.33
2019-04-04T12:36:44.240Z,9.28
2019-04-04T12:39:12.738Z,8.23
2019-04-04T12:41:41.217Z,5.17
2019-04-04T12:44:09.756Z,6.47
2019-04-04T12:46:38.363Z,5.90
2019-04-04T12:49:06.956Z,7.40
2019-04-04T12:51:35.516Z,5.50
2019-04-04T12:54:04.011Z,6.20
2019-04-04T12:56:32.478Z,5.78
2019-04-04T12:59:00.959Z,4.45
2019-04-04T13:01:29.374Z,5.80
2019-04-04T13:03:57.915Z,7.10
2019-04-04T13:06:30.702Z,5.87
2019-04-04T13:08:59.331Z,5.60
2019-04-04T13:11:27.830Z,5.40
2019-04-04T13:13:56.263Z,7.03
2019-04-04T13:16:24.811Z,5.12
2019-04-04T13:18:53.241Z,6.78
2019-04-04T13:21:21.769Z,5.80
2019-04-04T13:23:50.289Z,6.42
2019-04-04T13:26:18.770Z,4.85
2019-04-04T13:28:47.385Z,6.17
2019-04-04T13:31:15.942Z,5.10
2019-04-04T13:33:47.178Z,4.42
2019-04-04T13:36:15.662Z,4.42
2019-04-04T13:38:44.102Z,4.10
2019-04-04T13:41:21.693Z,4.05
2019-04-04T13:43:42.857Z,6.75
2019-04-04T13:46:11.432Z,3.92
2019-04-04T13:48:43.179Z,4.55
2019-04-04T13:51:10.241Z,5.08
2019-04-04T13:53:41.239Z,4.15
2019-04-04T13:56:09.037Z,6.37
2019-04-04T13:58:39.047Z,3.67
2019-04-04T14:01:07.639Z,3.25
2019-04-04T14:03:36.197Z,3.40
2019-04-04T14:06:04.719Z,4.12
2019-04-04T14:08:33.256Z,3.47
2019-04-04T14:11:01.954Z,3.92
2019-04-04T14:13:30.408Z,3.85
2019-04-04T14:15:59.057Z,3.80
2019-04-04T14:18:38.972Z,3.20
2019-04-04T14:21:03.809Z,4.08
2019-04-04T14:23:28.999Z,5.83
2019-04-04T14:25:59.697Z,5.70
2019-04-04T14:28:28.446Z,4.15
2019-04-04T14:30:57.941Z,3.65
2019-04-04T14:33:26.463Z,4.85
2019-04-04T14:35:55.053Z,4.08
2019-04-04T14:38:23.668Z,5.40
2019-04-04T14:40:52.159Z,5.15
2019-04-04T14:43:20.687Z,4.15
2019-04-04T14:45:50.530Z,5.87
2019-04-04T14:48:19.033Z,4.55
2019-04-04T14:50:47.478Z,5.35
2019-04-04T14:53:15.996Z,4.42
2019-04-04T14:55:46.001Z,5.35
2019-04-04T14:58:14.508Z,5.45
2019-04-04T15:00:42.955Z,6.87
2019-04-04T15:03:11.499Z,8.90
2019-04-04T15:05:40.003Z,5.15
2019-04-04T15:08:08.478Z,5.30
2019-04-04T15:10:38.969Z,5.00
2019-04-04T15:13:07.134Z,4.75
2019-04-04T15:15:35.763Z,4.92
2019-04-04T15:18:04.358Z,5.95
2019-04-04T15:20:32.915Z,8.38
2019-04-04T15:23:01.374Z,4.08
2019-04-04T15:25:29.875Z,4.67
2019-04-04T15:27:58.364Z,4.85
2019-04-04T15:30:26.975Z,9.78
2019-04-04T15:32:55.530Z,5.60
2019-04-04T15:35:24.131Z,4.37
2019-04-04T15:37:52.717Z,4.90
2019-04-04T15:40:21.356Z,6.12
2019-04-04T15:42:49.889Z,5.58
2019-04-04T15:45:18.334Z,5.47
2019-04-04T15:47:46.793Z,4.75
2019-04-04T15:50:15.502Z,4.75
2019-04-04T15:52:43.918Z,4.05
2019-04-04T15:55:12.597Z,5.95
2019-04-04T15:57:41.285Z,3.60
2019-04-04T16:00:10.895Z,3.67
2019-04-04T16:02:39.361Z,4.10
2019-04-04T16:05:09.151Z,4.20
2019-04-04T16:07:37.743Z,4.25
2019-04-04T16:10:07.419Z,5.03
2019-04-04T16:12:35.986Z,3.80
2019-04-04T16:15:06.672Z,4.50
2019-04-04T16:17:35.099Z,3.55
2019-04-04T16:20:05.697Z,4.35
2019-04-04T16:22:34.236Z,4.83
2019-04-04T16:25:02.703Z,3.40
2019-04-04T16:27:31.287Z,3.58
2019-04-04T16:30:01.525Z,5.35
2019-04-04T16:32:30.122Z,3.90
2019-04-04T16:34:58.910Z,4.60
2019-04-04T16:37:27.439Z,3.35
2019-04-04T16:40:07.905Z,4.40
2019-04-04T16:42:28.080Z,6.85
2019-04-04T16:44:56.488Z,3.55
2019-04-04T16:47:25.034Z,3.15
2019-04-04T16:49:53.538Z,3.25
2019-04-04T16:52:22.063Z,5.60
2019-04-04T16:54:52.401Z,3.30
2019-04-04T16:57:23.639Z,3.87
2019-04-04T16:59:52.138Z,4.05
2019-04-04T17:02:20.898Z,4.03
2019-04-04T17:04:49.512Z,4.85
2019-04-04T17:07:17.944Z,5.67
2019-04-04T17:09:46.468Z,3.72
2019-04-04T17:12:15.423Z,4.60
2019-04-04T17:14:44.071Z,6.08
2019-04-04T17:17:12.555Z,3.50
2019-04-04T17:19:40.993Z,5.05
2019-04-04T17:22:09.510Z,5.42
2019-04-04T17:24:37.974Z,4.80
2019-04-04T17:27:06.431Z,6.03
2019-04-04T17:29:34.965Z,5.47
2019-04-04T17:32:03.532Z,4.90
2019-04-04T17:34:32.128Z,4.60
2019-04-04T17:37:00.654Z,5.37
2019-04-04T17:39:29.157Z,4.95
2019-04-04T17:41:57.749Z,5.85
2019-04-04T17:44:26.491Z,4.03
2019-04-04T17:46:54.993Z,5.05
2019-04-04T17:49:23.862Z,4.30
2019-04-04T17:51:52.651Z,4.45
2019-04-04T17:54:21.167Z,8.88
2019-04-04T17:56:49.689Z,4.95
2019-04-04T17:59:18.139Z,4.55
2019-04-04T18:01:46.671Z,5.55
2019-04-04T18:04:15.202Z,5.67
2019-04-04T18:06:43.724Z,5.80
2019-04-04T18:09:12.144Z,7.15
2019-04-04T18:11:40.831Z,12.35
2019-04-04T18:14:09.418Z,15.28
2019-04-04T18:16:38.303Z,12.82
2019-04-04T18:19:06.868Z,10.55
2019-04-04T18:21:35.411Z,11.95
2019-04-04T18:24:04.235Z,10.65
2019-04-04T18:26:32.998Z,7.72
2019-04-04T18:29:01.553Z,6.55
2019-04-04T18:31:30.030Z,5.65
2019-04-04T18:33:58.837Z,5.75
2019-04-04T18:36:27.680Z,4.92
2019-04-04T18:38:56.370Z,5.78
2019-04-04T18:41:25.401Z,5.40
2019-04-04T18:43:54.022Z,5.55
2019-04-04T18:46:22.621Z,6.00
2019-04-04T18:48:52.883Z,6.95
2019-04-04T18:51:21.360Z,5.12
2019-04-04T18:53:49.935Z,5.53
2019-04-04T18:56:18.432Z,5.78
2019-04-04T18:58:47.104Z,7.95
2019-04-04T19:01:15.626Z,5.08
2019-04-04T19:03:44.158Z,6.00
2019-04-04T19:06:17.170Z,6.62
2019-04-04T19:11:13.328Z,6.30
2019-04-04T19:13:44.527Z,6.50
2019-04-04T19:16:12.103Z,6.10
2019-04-04T19:18:40.756Z,8.65
2019-04-04T19:21:09.318Z,6.15
2019-04-04T19:23:49.123Z,7.58
2019-04-04T19:26:12.215Z,5.92
2019-04-04T19:28:40.728Z,6.40
2019-04-04T19:31:09.749Z,6.03
2019-04-04T19:33:38.201Z,7.10
2019-04-04T19:36:06.730Z,5.92
2019-04-04T19:38:35.497Z,6.17
2019-04-04T19:41:04.359Z,6.47
2019-04-04T19:43:32.823Z,7.35
2019-04-04T19:46:01.395Z,9.00
2019-04-04T19:48:29.979Z,7.78
2019-04-04T19:50:58.543Z,7.80
2019-04-04T19:53:27.126Z,7.90
2019-04-04T19:55:55.627Z,9.33
2019-04-04T19:58:24.291Z,9.08
2019-04-04T20:00:53.457Z,8.35
2019-04-04T20:03:22.215Z,7.85
2019-04-04T20:05:50.781Z,10.15
2019-04-04T20:08:19.404Z,9.20
2019-04-04T20:10:47.995Z,9.05
2019-04-04T20:13:29.956Z,33.85
2019-04-04T20:15:48.170Z,11.48
2019-04-04T20:18:16.733Z,9.55
2019-04-04T20:20:45.244Z,13.35
2019-04-04T20:23:13.755Z,10.63
2019-04-04T20:25:42.412Z,11.43
2019-04-04T20:28:10.986Z,10.53
2019-04-04T20:30:40.094Z,12.45
2019-04-04T20:33:09.030Z,13.85
2019-04-04T20:35:37.556Z,11.97
2019-04-04T20:38:06.279Z,30.68
2019-04-04T20:40:36.313Z,13.28
2019-04-04T20:43:04.840Z,11.55
2019-04-04T20:45:33.381Z,10.30
2019-04-04T20:48:02.163Z,11.15
2019-04-04T20:50:30.834Z,17.67
2019-04-04T20:52:59.330Z,11.57
2019-04-04T20:55:28.041Z,14.70
2019-04-04T20:57:56.813Z,14.87
2019-04-04T21:03:04.256Z,17.05
2019-04-04T21:05:32.798Z,12.00
2019-04-04T21:08:01.539Z,14.10
2019-04-04T21:10:29.966Z,12.40
2019-04-04T21:12:58.596Z,13.10
2019-04-04T21:15:27.033Z,15.35
2019-04-04T21:17:55.668Z,15.00
2019-04-04T21:20:24.324Z,13.32
2019-04-04T21:22:52.892Z,13.80
2019-04-04T21:25:21.422Z,15.70
2019-04-04T21:27:50.070Z,15.53
2019-04-04T21:30:18.785Z,15.18
2019-04-04T21:32:47.376Z,16.12
2019-04-04T21:35:15.909Z,18.12
2019-04-04T21:37:44.360Z,14.40
2019-04-04T21:40:15.586Z,15.32
2019-04-04T21:42:44.205Z,15.95
2019-04-04T21:45:15.092Z,16.05
2019-04-04T21:47:43.048Z,15.70
2019-04-04T21:50:11.852Z,17.67
2019-04-04T21:52:40.354Z,17.80
2019-04-04T21:55:08.843Z,19.25
2019-04-04T21:57:37.310Z,22.05
2019-04-04T22:00:07.785Z,18.37
2019-04-04T22:02:47.406Z,19.00
2019-04-04T22:05:15.966Z,16.77
2019-04-04T22:07:44.435Z,19.57
2019-04-04T22:10:13.125Z,18.82
2019-04-04T22:12:41.613Z,19.87
2019-04-04T22:15:10.289Z,19.30
2019-04-04T22:17:38.731Z,17.90
2019-04-04T22:20:07.791Z,17.62
2019-04-04T22:22:36.206Z,15.45
2019-04-04T22:25:14.550Z,18.82
2019-04-04T22:27:43.011Z,16.48
2019-04-04T22:30:11.911Z,17.35
2019-04-04T22:32:40.335Z,16.65
2019-04-04T22:35:08.858Z,17.05
2019-04-04T22:37:38.828Z,20.62
2019-04-04T22:40:14.674Z,16.00
2019-04-04T22:42:43.177Z,18.12
2019-04-04T22:45:11.935Z,19.20
2019-04-04T22:47:40.415Z,20.75
2019-04-04T22:50:09.093Z,23.05
2019-04-04T22:52:37.582Z,19.65
2019-04-04T22:55:06.502Z,22.90
2019-04-04T22:57:34.986Z,24.37
2019-04-04T23:00:05.727Z,23.15
2019-04-04T23:02:34.170Z,23.20
2019-04-04T23:05:03.096Z,27.15
2019-04-04T23:07:31.574Z,27.20
2019-04-04T23:10:00.021Z,25.08
2019-04-04T23:12:28.475Z,27.25
2019-04-04T23:14:56.996Z,24.95
2019-04-04T23:17:25.487Z,26.25
2019-04-04T23:19:53.992Z,29.52
2019-04-04T23:22:22.562Z,29.75
2019-04-04T23:24:51.070Z,29.30
2019-04-04T23:27:19.529Z,33.25
2019-04-04T23:29:47.988Z,30.02
2019-04-04T23:32:17.252Z,31.33
2019-04-04T23:34:45.707Z,29.80
2019-04-04T23:37:14.216Z,35.03
2019-04-04T23:39:42.678Z,32.70
2019-04-04T23:42:12.768Z,32.50
2019-04-04T23:44:41.406Z,31.17
2019-04-04T23:47:09.835Z,34.58
2019-04-04T23:49:38.292Z,35.05
2019-04-04T23:52:06.716Z,33.90
2019-04-04T23:54:35.174Z,33.88
2019-04-04T23:57:03.658Z,34.35
2019-04-04T23:59:32.126Z,33.25
